createdAt,value
2022-10-01T00:00:02.259Z,77.11
2022-10-01T00:05:25.256Z,77.33
2022-10-01T00:10:30.435Z,77.15
2022-10-01T00:15:33.419Z,76.43
2022-10-01T00:20:40.473Z,76.22
2022-10-01T00:25:43.942Z,75.97
2022-10-01T00:30:48.184Z,76.20
2022-10-01T00:35:54.873Z,76.38
2022-10-01T00:40:58.765Z,74.49
2022-10-01T00:46:13.772Z,75.65
2022-10-01T00:51:16.885Z,76.47
2022-10-01T00:56:19.893Z,75.84
2022-10-01T01:01:24.766Z,75.32
2022-10-01T01:06:27.810Z,76.72
2022-10-01T01:11:58.813Z,76.43
2022-10-01T01:17:10.979Z,77.08
2022-10-01T01:22:15.478Z,76.99
2022-10-01T01:27:45.176Z,77.04
2022-10-01T01:33:04.816Z,76.59
2022-10-01T01:38:14.362Z,76.77
2022-10-01T01:43:24.304Z,75.99
2022-10-01T01:48:29.490Z,76.62
2022-10-01T01:53:32.601Z,76.94
2022-10-01T01:58:36.472Z,77.33
2022-10-01T02:03:39.432Z,77.16
2022-10-01T02:08:58.311Z,76.89
2022-10-01T02:14:22.822Z,75.23
2022-10-01T02:19:36.328Z,73.35
2022-10-01T02:24:57.100Z,73.96
2022-10-01T02:30:02.764Z,76.56
2022-10-01T02:35:12.243Z,76.82
2022-10-01T02:40:18.923Z,75.74
2022-10-01T02:45:25.096Z,75.86
2022-10-01T02:50:35.015Z,75.56
2022-10-01T02:55:39.924Z,73.67
2022-10-01T03:00:42.823Z,76.38
2022-10-01T03:05:45.829Z,77.42
2022-10-01T03:10:48.732Z,77.66
2022-10-01T03:15:51.888Z,77.29
2022-10-01T03:20:54.845Z,76.88
2022-10-01T03:25:57.859Z,76.91
2022-10-01T03:31:06.266Z,76.88
2022-10-01T03:36:09.188Z,76.99
2022-10-01T03:41:14.551Z,77.61
2022-10-01T03:46:18.273Z,77.91
2022-10-01T03:51:21.178Z,77.78
2022-10-01T03:56:26.231Z,77.78
2022-10-01T04:01:29.287Z,77.11
2022-10-01T04:06:32.934Z,77.58
2022-10-01T04:11:36.820Z,77.39
2022-10-01T04:16:40.048Z,75.83
2022-10-01T04:21:43.106Z,76.61
2022-10-01T04:26:46.010Z,75.44
2022-10-01T04:31:48.950Z,76.16
2022-10-01T04:36:51.920Z,74.58
2022-10-01T04:41:54.931Z,74.02
2022-10-01T04:46:57.881Z,73.96
2022-10-01T04:52:01.349Z,75.53
2022-10-01T04:57:04.458Z,74.42
2022-10-01T05:02:07.435Z,74.18
2022-10-01T05:07:10.473Z,74.59
2022-10-01T05:12:13.375Z,74.92
2022-10-01T05:17:17.404Z,73.88
2022-10-01T05:22:20.173Z,72.45
2022-10-01T05:27:23.109Z,70.70
2022-10-01T05:32:26.015Z,68.85
2022-10-01T05:37:28.918Z,66.49
2022-10-01T05:42:31.720Z,64.11
2022-10-01T05:47:34.623Z,62.01
2022-10-01T05:52:37.531Z,59.70
2022-10-01T05:57:40.435Z,60.21
2022-10-01T06:02:43.630Z,54.64
2022-10-01T06:07:48.726Z,53.94
2022-10-01T06:12:52.010Z,49.76
2022-10-01T06:17:55.126Z,48.71
2022-10-01T06:22:58.566Z,52.24
2022-10-01T06:28:02.305Z,49.03
2022-10-01T06:33:16.017Z,45.16
2022-10-01T06:38:21.309Z,47.74
2022-10-01T06:43:26.680Z,45.60
2022-10-01T06:48:31.125Z,46.20
2022-10-01T06:53:33.988Z,41.29
2022-10-01T06:58:37.501Z,45.15
2022-10-01T07:03:40.421Z,44.93
2022-10-01T07:08:43.718Z,44.46
2022-10-01T07:13:49.990Z,43.00
2022-10-01T07:18:55.362Z,41.68
2022-10-01T07:23:58.270Z,40.58
2022-10-01T07:29:01.534Z,40.03
2022-10-01T07:34:04.396Z,39.11
2022-10-01T07:39:09.862Z,38.93
2022-10-01T07:44:12.870Z,38.24
2022-10-01T07:49:19.781Z,36.74
2022-10-01T07:54:23.447Z,36.09
2022-10-01T07:59:27.402Z,35.82
2022-10-01T08:04:50.792Z,35.12
2022-10-01T08:09:54.204Z,34.84
2022-10-01T08:14:57.284Z,35.04
2022-10-01T08:20:00.420Z,35.19
2022-10-01T08:25:03.780Z,37.63
2022-10-01T08:30:07.424Z,41.57
2022-10-01T08:35:10.427Z,45.41
2022-10-01T08:40:13.297Z,48.33
2022-10-01T08:45:27.807Z,50.22
2022-10-01T08:50:30.661Z,51.66
2022-10-01T08:55:37.586Z,54.27
2022-10-01T09:00:44.785Z,55.26
2022-10-01T09:05:59.734Z,56.07
2022-10-01T09:11:12.751Z,57.32
2022-10-01T09:16:37.446Z,57.77
2022-10-01T09:21:55.493Z,56.77
2022-10-01T09:26:58.355Z,57.18
2022-10-01T09:32:04.089Z,56.74
2022-10-01T09:37:15.423Z,55.63
2022-10-01T09:42:18.737Z,56.75
2022-10-01T09:47:26.832Z,57.98
2022-10-01T09:52:39.311Z,56.79
2022-10-01T09:57:47.872Z,55.54
2022-10-01T10:02:52.454Z,56.61
2022-10-01T10:08:00.214Z,56.69
2022-10-01T10:13:05.244Z,56.07
2022-10-01T10:18:24.067Z,55.55
2022-10-01T10:23:29.512Z,54.86
2022-10-01T10:28:44.654Z,54.19
2022-10-01T10:33:54.234Z,54.74
2022-10-01T10:38:59.027Z,54.36
2022-10-01T10:44:07.582Z,53.29
2022-10-01T10:49:21.079Z,52.94
2022-10-01T10:54:40.824Z,54.20
2022-10-01T10:59:56.291Z,54.73
2022-10-01T11:05:20.485Z,54.40
2022-10-01T11:10:42.118Z,52.48
2022-10-01T11:16:20.303Z,52.66
2022-10-01T11:21:35.647Z,52.87
2022-10-01T11:26:53.404Z,52.56
2022-10-01T11:32:19.671Z,52.84
2022-10-01T11:37:25.525Z,53.68
2022-10-01T11:42:36.765Z,53.21
2022-10-01T11:47:54.885Z,53.04
2022-10-01T11:53:09.765Z,53.47
2022-10-01T11:58:43.294Z,53.64
2022-10-01T12:03:59.316Z,53.40
2022-10-01T12:09:32.723Z,52.92
2022-10-01T12:14:44.845Z,52.83
2022-10-01T12:19:52.246Z,53.82
2022-10-01T12:24:55.457Z,54.57
2022-10-01T12:30:10.151Z,54.76
2022-10-01T12:35:28.005Z,54.79
2022-10-01T12:40:38.622Z,54.20
2022-10-01T12:45:54.478Z,53.61
2022-10-01T12:51:00.089Z,53.89
2022-10-01T12:56:31.321Z,54.26
2022-10-01T13:02:14.731Z,54.48
2022-10-01T13:07:49.220Z,55.06
2022-10-01T13:13:06.651Z,54.88
2022-10-01T13:18:12.375Z,54.81
2022-10-01T13:23:30.495Z,55.18
2022-10-01T13:28:57.669Z,55.39
2022-10-01T13:34:01.905Z,55.78
2022-10-01T13:39:04.842Z,55.41
2022-10-01T13:44:08.126Z,55.68
2022-10-01T13:49:25.325Z,55.51
2022-10-01T13:54:33.285Z,55.64
2022-10-01T13:59:38.297Z,55.69
2022-10-01T14:04:43.872Z,55.06
2022-10-01T14:09:51.633Z,55.27
2022-10-01T14:15:19.223Z,55.94
2022-10-01T14:20:35.657Z,56.31
2022-10-01T14:26:03.409Z,57.09
2022-10-01T14:31:35.349Z,57.83
2022-10-01T14:36:53.640Z,59.19
2022-10-01T14:41:58.215Z,60.27
2022-10-01T14:47:21.897Z,61.43
2022-10-01T14:52:30.123Z,62.32
2022-10-01T14:58:00.578Z,61.27
2022-10-01T15:03:15.790Z,59.58
2022-10-01T15:08:23.521Z,60.32
2022-10-01T15:13:32.431Z,62.24
2022-10-01T15:18:36.912Z,62.28
2022-10-01T15:23:40.912Z,61.10
2022-10-01T15:28:44.625Z,60.65
2022-10-01T15:33:47.904Z,61.26
2022-10-01T15:38:51.740Z,61.33
2022-10-01T15:43:54.817Z,61.89
2022-10-01T15:49:17.570Z,61.80
2022-10-01T15:54:20.548Z,62.24
2022-10-01T15:59:23.659Z,62.73
2022-10-01T16:04:26.856Z,63.12
2022-10-01T16:09:30.810Z,63.35
2022-10-01T16:14:45.211Z,64.02
2022-10-01T16:19:50.734Z,64.53
2022-10-01T16:25:01.824Z,64.97
2022-10-01T16:30:07.805Z,64.83
2022-10-01T16:35:21.057Z,65.20
2022-10-01T16:40:26.721Z,65.51
2022-10-01T16:45:36.771Z,65.64
2022-10-01T16:50:40.209Z,65.92
2022-10-01T16:55:44.207Z,66.05
2022-10-01T17:00:47.103Z,66.21
2022-10-01T17:05:50.259Z,66.12
2022-10-01T17:10:58.796Z,66.18
2022-10-01T17:16:06.094Z,66.27
2022-10-01T17:21:09.732Z,66.49
2022-10-01T17:26:12.650Z,66.88
2022-10-01T17:31:18.008Z,67.36
2022-10-01T17:36:21.298Z,67.14
2022-10-01T17:41:24.304Z,67.28
2022-10-01T17:46:27.413Z,67.40
2022-10-01T17:51:30.520Z,67.89
2022-10-01T17:56:38.409Z,67.92
2022-10-01T18:01:41.857Z,68.02
2022-10-01T18:06:45.023Z,67.97
2022-10-01T18:11:51.916Z,68.42
2022-10-01T18:16:54.911Z,68.27
2022-10-01T18:21:59.902Z,68.31
2022-10-01T18:27:02.935Z,68.71
2022-10-01T18:32:17.842Z,68.89
2022-10-01T18:37:29.634Z,68.98
2022-10-01T18:42:44.577Z,69.73
2022-10-01T18:47:53.365Z,70.03
2022-10-01T18:53:08.552Z,70.00
2022-10-01T18:58:33.264Z,69.96
2022-10-01T19:04:00.443Z,70.33
2022-10-01T19:09:17.270Z,70.38
2022-10-01T19:14:37.991Z,70.71
2022-10-01T19:19:52.984Z,71.02
2022-10-01T19:25:15.398Z,70.87
2022-10-01T19:30:20.070Z,71.01
2022-10-01T19:35:27.905Z,70.95
2022-10-01T19:40:55.285Z,71.53
2022-10-01T19:46:09.352Z,71.42
2022-10-01T19:51:16.182Z,71.60
2022-10-01T19:56:26.164Z,72.11
2022-10-01T20:01:38.471Z,71.87
2022-10-01T20:06:44.723Z,72.30
2022-10-01T20:12:01.760Z,71.90
2022-10-01T20:17:23.506Z,72.19
2022-10-01T20:22:58.667Z,72.98
2022-10-01T20:28:19.461Z,73.84
2022-10-01T20:33:36.020Z,74.37
2022-10-01T20:38:45.349Z,73.99
2022-10-01T20:43:52.982Z,73.53
2022-10-01T20:49:18.305Z,72.82
2022-10-01T20:54:36.167Z,72.53
2022-10-01T20:59:51.649Z,73.12
2022-10-01T21:05:06.631Z,73.59
2022-10-01T21:10:46.322Z,73.26
2022-10-01T21:16:23.375Z,73.24
2022-10-01T21:21:55.411Z,73.03
2022-10-01T21:27:35.798Z,72.68
2022-10-01T21:33:02.083Z,73.18
2022-10-01T21:38:28.099Z,73.59
2022-10-01T21:44:12.473Z,73.13
2022-10-01T21:49:46.097Z,72.86
2022-10-01T21:55:06.204Z,72.55
2022-10-01T22:00:28.976Z,72.75
2022-10-01T22:05:41.173Z,73.05
2022-10-01T22:10:51.064Z,72.98
2022-10-01T22:15:59.393Z,72.94
2022-10-01T22:21:08.750Z,72.79
2022-10-01T22:26:17.590Z,72.74
2022-10-01T22:31:26.203Z,72.89
2022-10-01T22:36:41.842Z,73.12
2022-10-01T22:41:56.689Z,73.21
2022-10-01T22:47:02.595Z,73.06
2022-10-01T22:52:54.703Z,73.50
2022-10-01T22:58:18.544Z,73.74
2022-10-01T23:03:41.727Z,74.01
2022-10-01T23:09:18.322Z,74.38
2022-10-01T23:14:42.527Z,74.63
2022-10-01T23:20:06.875Z,74.84
2022-10-01T23:25:18.820Z,74.92
2022-10-01T23:30:22.167Z,74.74
2022-10-01T23:35:42.811Z,74.37
2022-10-01T23:40:48.343Z,74.42
2022-10-01T23:46:07.595Z,74.20
2022-10-01T23:51:23.237Z,74.18
2022-10-01T23:56:48.882Z,74.41
